Time;durP1;ratioP1;P1;durP2;ratioP2;P2;SDS_P1;SDS_P2;PMS_P1;PMS_P2;Temp;Humidity;BMP_temperature;BMP_pressure;BME280_temperature;BME280_humidity;BME280_pressure;Samples;Min_cycle;Max_cycle;Signal;HPM_P1;HPM_P2
2022/05/18 07:59:15;;;;;;;12.95;9.52;;;;;;;20.80;65.32;101934.44;5292199;28;20416;-90
2022/05/18 08:02:29;;;;;;;11.57;9.07;;;;;;;20.94;65.24;101934.22;5260434;28;20044;-81
2022/05/18 08:05:09;;;;;;;23.85;20.05;;;;;;;21.02;65.57;101933.41;5265200;28;20082;-81
2022/05/18 08:07:57;;;;;;;12.25;10.43;;;;;;;21.17;65.21;101938.53;5280633;28;20029;-87
2022/05/18 08:17:53;;;;;;;11.45;9.18;;;;;;;21.25;65.87;101934.84;5272756;28;20041;-86
2022/05/18 08:20:41;;;;;;;13.98;12.00;;;;;;;21.30;65.81;101933.03;5263536;28;20047;-86
2022/05/18 08:23:19;;;;;;;12.43;10.77;;;;;;;21.21;65.51;101939.50;5277545;28;20040;-82
2022/05/18 08:25:53;;;;;;;10.63;9.48;;;;;;;21.31;65.57;101937.47;5285596;28;20369;-83
2022/05/18 08:28:24;;;;;;;12.20;10.98;;;;;;;21.40;65.50;101938.31;5283594;28;20056;-83
2022/05/18 08:30:56;;;;;;;14.27;11.15;;;;;;;21.58;65.51;101939.91;5272835;28;20025;-82
2022/05/18 08:33:31;;;;;;;10.63;9.35;;;;;;;21.73;65.23;101938.53;5265157;28;20494;-82
2022/05/18 08:36:07;;;;;;;12.57;9.43;;;;;;;21.81;64.92;101946.13;5282390;28;20067;-83
2022/05/18 08:38:38;;;;;;;11.75;9.25;;;;;;;21.78;64.26;101946.81;5261824;28;20037;-83
2022/05/18 08:41:14;;;;;;;13.07;9.30;;;;;;;21.96;64.44;101949.50;5282092;28;20498;-80
2022/05/18 08:43:48;;;;;;;9.93;8.70;;;;;;;21.98;64.06;101948.00;5269505;28;20116;-85
2022/05/18 08:46:38;;;;;;;9.77;8.48;;;;;;;22.06;63.32;101949.13;5275968;28;20021;-83
2022/05/18 08:49:27;;;;;;;9.07;7.88;;;;;;;22.17;62.93;101949.56;5261312;28;20404;-83
2022/05/18 08:52:04;;;;;;;10.15;7.72;;;;;;;22.23;62.91;101954.69;5270998;28;20104;-83
2022/05/18 08:54:56;;;;;;;13.15;8.02;;;;;;;22.36;62.70;101945.13;5258913;28;20033;-83
2022/05/18 08:57:36;;;;;;;9.80;7.43;;;;;;;22.45;62.72;101944.25;5257184;28;20057;-84
2022/05/18 09:00:18;;;;;;;10.07;8.15;;;;;;;22.60;62.54;101943.63;5258243;28;20511;-82
2022/05/18 09:02:59;;;;;;;9.75;7.85;;;;;;;22.66;61.88;101953.53;5269961;28;20099;-82
2022/05/18 09:05:41;;;;;;;9.55;7.88;;;;;;;22.70;61.37;101948.00;5263459;28;20025;-84
2022/05/18 09:08:23;;;;;;;9.38;7.30;;;;;;;22.76;61.08;101955.94;5270923;28;20108;-83
2022/05/18 09:14:25;;;;;;;9.90;9.00;;;;;;;22.66;61.83;101949.88;5244586;28;20025;-79
2022/05/18 09:17:31;;;;;;;19.40;17.40;;;;;;;22.77;60.73;101949.09;5242810;28;20484;-83
2022/05/18 09:20:33;;;;;;;12.10;9.98;;;;;;;22.86;59.75;101948.22;5236868;28;20034;-83
2022/05/18 09:23:55;;;;;;;28.23;25.27;;;;;;;22.67;60.18;101951.53;5223332;28;20045;-79
2022/05/18 09:26:48;;;;;;;10.52;7.45;;;;;;;22.69;60.27;101952.03;5222648;28;20420;-84
2022/05/18 09:29:47;;;;;;;7.10;5.95;;;;;;;22.65;59.82;101953.88;5244607;28;20096;-84
2022/05/18 09:32:30;;;;;;;9.48;7.68;;;;;;;22.60;60.09;101945.59;5244066;28;20524;-83
2022/05/18 09:35:14;;;;;;;9.52;6.32;;;;;;;22.62;59.65;101935.59;5244208;28;20483;-83
2022/05/18 09:37:51;;;;;;;9.15;6.25;;;;;;;22.91;59.45;101951.66;5244602;28;20037;-86
2022/05/18 09:40:34;;;;;;;6.00;5.28;;;;;;;22.92;58.21;101952.47;5243982;28;20029;-80
2022/05/18 09:43:10;;;;;;;6.78;5.03;;;;;;;22.83;58.51;101946.06;5243895;28;20075;-81
2022/05/18 09:45:47;;;;;;;6.50;4.85;;;;;;;22.91;58.54;101951.66;5243389;28;20026;-79
2022/05/18 09:48:31;;;;;;;5.90;4.20;;;;;;;23.05;58.42;101953.38;5242528;28;20435;-78
2022/05/18 09:51:04;;;;;;;8.35;5.63;;;;;;;23.08;58.04;101944.19;5257093;28;20417;-79
2022/05/18 09:53:40;;;;;;;22.63;19.50;;;;;;;23.28;57.04;101943.31;5242891;28;20385;-77
2022/05/18 09:56:32;;;;;;;7.30;5.25;;;;;;;23.44;56.72;101951.94;5243618;28;20152;-80
2022/05/18 09:59:11;;;;;;;7.03;4.30;;;;;;;23.42;56.80;101949.47;5242601;28;20069;-78
2022/05/18 10:07:28;;;;;;;5.30;3.00;;;;;;;23.35;55.87;101954.88;5243777;28;20025;-80
2022/05/18 10:10:09;;;;;;;4.32;3.55;;;;;;;23.61;55.70;101956.56;5241687;28;20083;-79
2022/05/18 10:12:48;;;;;;;4.15;2.50;;;;;;;23.82;54.68;101967.81;5242564;28;20050;-79
2022/05/18 10:15:22;;;;;;;4.43;3.28;;;;;;;23.76;54.29;101957.91;5242217;28;20030;-78
2022/05/18 10:18:00;;;;;;;4.38;2.75;;;;;;;23.66;54.15;101957.16;5242808;28;20033;-85
2022/05/18 10:20:34;;;;;;;4.03;2.75;;;;;;;23.52;54.16;101955.84;5232284;28;20038;-82
2022/05/18 10:23:29;;;;;;;3.78;2.80;;;;;;;23.69;53.82;101947.13;5241962;28;20048;-82
2022/05/18 10:26:01;;;;;;;6.05;2.78;;;;;;;23.58;54.00;101951.63;5242467;28;20061;-80
2022/05/18 10:28:32;;;;;;;4.38;2.72;;;;;;;23.77;53.69;101960.38;5242020;28;20036;-78
2022/05/18 10:31:06;;;;;;;5.47;3.70;;;;;;;23.65;53.37;101954.69;5241815;28;20380;-78
2022/05/18 10:33:41;;;;;;;6.95;3.45;;;;;;;23.58;53.36;101951.63;5242781;28;20376;-79
2022/05/18 10:36:22;;;;;;;4.85;3.20;;;;;;;23.84;53.75;101951.31;5241868;28;20053;-79
2022/05/18 10:39:03;;;;;;;8.15;3.53;;;;;;;23.79;53.61;101945.88;5242378;28;20025;-76
2022/05/18 10:41:43;;;;;;;3.78;3.05;;;;;;;23.72;53.70;101937.97;5242517;28;20055;-78
2022/05/18 10:44:20;;;;;;;8.65;4.80;;;;;;;23.87;53.51;101947.75;5241503;28;20112;-78
2022/05/18 10:46:51;;;;;;;5.50;3.67;;;;;;;24.07;53.59;101943.16;5241699;28;20163;-78
2022/05/18 10:49:32;;;;;;;5.50;3.55;;;;;;;24.15;53.67;101938.53;5242143;28;20540;-78
2022/05/18 10:52:16;;;;;;;6.50;4.15;;;;;;;23.92;53.80;101935.38;5241193;28;20018;-79
2022/05/18 10:55:06;;;;;;;7.70;5.30;;;;;;;23.88;54.22;101929.59;5242418;28;20163;-80
2022/05/18 10:57:39;;;;;;;20.58;18.35;;;;;;;24.04;54.11;101929.69;5240691;28;20082;-80
2022/05/18 11:00:15;;;;;;;8.20;6.20;;;;;;;24.18;53.92;101934.97;5241577;28;20088;-83
2022/05/18 11:03:11;;;;;;;23.08;20.95;;;;;;;24.27;54.14;101932.84;5241057;28;20063;-81
2022/05/18 11:05:48;;;;;;;;;;;;;;;24.41;52.90;101935.28;5241905;28;20060;-88
2022/05/18 11:08:28;;;;;;;5.65;3.90;;;;;;;24.42;52.43;101925.63;5241302;28;19971;-83
2022/05/18 11:11:11;;;;;;;8.05;3.35;;;;;;;24.51;52.84;101927.13;5247736;23;20451;-83
2022/05/18 11:13:43;;;;;;;4.70;3.50;;;;;;;24.67;52.42;101930.06;5262971;28;20036;-83
2022/05/18 11:16:17;;;;;;;21.13;18.95;;;;;;;24.61;52.04;101931.47;5263763;28;20471;-82
2022/05/18 11:19:01;;;;;;;6.35;3.63;;;;;;;24.71;51.92;101922.47;5261962;28;20143;-83
2022/05/18 11:21:51;;;;;;;7.22;3.90;;;;;;;24.73;52.12;101928.59;5262613;28;20480;-79
2022/05/18 11:24:33;;;;;;;8.25;5.05;;;;;;;24.74;52.37;101924.56;5262455;28;20017;-80
2022/05/18 11:27:42;;;;;;;5.68;4.50;;;;;;;24.78;52.84;101923.88;5261712;28;20375;-78
2022/05/18 11:30:31;;;;;;;6.20;4.60;;;;;;;24.88;52.13;101927.00;5261315;28;20371;-80
2022/05/18 11:33:21;;;;;;;7.10;4.38;;;;;;;24.68;52.08;101926.03;5259070;28;20521;-78
2022/05/18 11:36:14;;;;;;;5.90;3.65;;;;;;;24.86;52.66;101915.19;5260842;28;20036;-79
2022/05/18 11:38:59;;;;;;;4.30;3.55;;;;;;;25.14;51.32;101920.00;5262128;28;20078;-78
2022/05/18 11:41:41;;;;;;;8.25;4.47;;;;;;;24.90;51.46;101913.28;5241541;28;20422;-79
2022/05/18 11:44:32;;;;;;;6.72;4.28;;;;;;;25.07;51.30;101909.28;5251796;28;20032;-79
2022/05/18 11:47:21;;;;;;;6.35;4.70;;;;;;;24.99;51.60;101913.13;5247374;28;20071;-80
2022/05/18 11:50:09;;;;;;;13.52;11.90;;;;;;;24.88;51.82;101900.66;5248605;28;20484;-78
2022/05/18 11:52:59;;;;;;;7.82;3.92;;;;;;;24.91;51.61;101906.41;5261391;28;20021;-77
2022/05/18 11:56:02;;;;;;;5.43;3.38;;;;;;;25.03;51.63;101901.84;5261082;28;20155;-78
2022/05/18 11:58:49;;;;;;;5.93;3.28;;;;;;;25.01;51.54;101913.59;5258457;28;20037;-77
2022/05/18 12:02:13;;;;;;;4.82;2.60;;;;;;;25.23;51.39;101912.16;5260937;28;20025;-75
2022/05/18 12:04:54;;;;;;;6.18;3.65;;;;;;;25.00;51.49;101922.44;5235241;28;20084;-77
2022/05/18 12:07:37;;;;;;;6.40;4.95;;;;;;;25.13;50.97;101902.16;5257997;28;20083;-75
2022/05/18 12:10:31;;;;;;;7.55;3.38;;;;;;;25.15;51.36;101907.47;5261258;28;20064;-76
2022/05/18 12:13:18;;;;;;;13.93;12.52;;;;;;;25.08;51.65;101916.63;5260994;28;20040;-76
2022/05/18 12:16:01;;;;;;;9.93;8.98;;;;;;;25.25;51.17;101904.13;5261140;28;20025;-75
2022/05/18 12:18:46;;;;;;;9.95;8.40;;;;;;;25.26;50.88;101904.94;5261089;28;20175;-76
2022/05/18 12:21:34;;;;;;;13.18;8.95;;;;;;;25.30;51.12;101900.19;5260878;28;20029;-77
2022/05/18 12:24:07;;;;;;;7.53;4.65;;;;;;;25.59;50.76;101905.41;5260704;28;20487;-74
2022/05/18 12:26:42;;;;;;;6.85;5.43;;;;;;;25.58;50.42;101906.59;5261841;28;20029;-75
2022/05/18 12:29:18;;;;;;;6.40;4.57;;;;;;;25.65;50.60;101907.97;5260681;28;20025;-75
2022/05/18 12:31:52;;;;;;;6.97;4.82;;;;;;;25.72;50.25;101906.13;5261980;28;20460;-79
2022/05/18 12:34:35;;;;;;;5.88;4.60;;;;;;;25.70;50.04;101907.69;5261053;28;20029;-76
2022/05/18 12:37:31;;;;;;;6.97;4.07;;;;;;;25.75;50.32;101904.56;5259907;28;20036;-77
2022/05/18 12:40:05;;;;;;;5.30;3.97;;;;;;;25.66;50.28;101915.28;5257651;28;20567;-78
2022/05/18 12:42:41;;;;;;;8.63;3.97;;;;;;;25.64;50.74;101909.16;5260243;28;20037;-77
2022/05/18 12:45:20;;;;;;;6.97;3.80;;;;;;;25.68;50.28;101908.06;5264738;28;20047;-76
2022/05/18 12:48:12;;;;;;;6.47;4.18;;;;;;;25.87;49.58;101903.66;5244795;28;20021;-71
2022/05/18 12:51:05;;;;;;;8.82;5.07;;;;;;;25.96;49.40;101902.28;5280187;28;20353;-77
2022/05/18 12:53:49;;;;;;;6.10;4.15;;;;;;;26.18;48.71;101900.75;5256909;28;20036;-76
2022/05/18 12:56:25;;;;;;;8.13;4.07;;;;;;;26.32;48.42;101891.69;5264400;28;20076;-77
2022/05/18 12:58:59;;;;;;;6.40;3.97;;;;;;;26.33;48.04;101895.38;5264564;28;20036;-77
2022/05/18 13:01:34;;;;;;;10.48;6.68;;;;;;;26.25;48.14;101902.91;5264898;28;20029;-76
2022/05/18 13:04:09;;;;;;;7.53;5.30;;;;;;;26.30;47.88;101896.13;5263982;28;20344;-76
2022/05/18 13:06:47;;;;;;;6.13;4.53;;;;;;;26.62;47.40;101896.84;5265261;28;20025;-75
2022/05/18 13:09:22;;;;;;;4.47;3.63;;;;;;;26.65;47.24;101902.59;5264300;28;20029;-77
2022/05/18 13:12:26;;;;;;;6.68;4.50;;;;;;;26.59;47.91;101900.44;5263660;28;20045;-77
2022/05/18 13:15:07;;;;;;;7.03;3.95;;;;;;;26.40;47.89;101896.34;5265042;28;20029;-81
2022/05/18 13:17:50;;;;;;;10.15;4.38;;;;;;;26.32;48.36;101894.56;5263480;28;20423;-72
2022/05/18 13:20:21;;;;;;;7.63;5.13;;;;;;;26.20;48.05;101895.53;5264600;28;20040;-75
2022/05/18 13:23:34;;;;;;;6.57;3.40;;;;;;;26.09;48.36;101893.63;5265068;28;20028;-75
2022/05/18 13:26:19;;;;;;;7.72;3.42;;;;;;;26.01;48.35;101895.47;5220344;28;20282;-75
2022/05/18 13:28:53;;;;;;;7.38;4.85;;;;;;;26.12;48.39;101890.84;5264711;28;20041;-78
2022/05/18 13:31:24;;;;;;;6.55;4.18;;;;;;;26.12;47.79;101895.72;5264716;28;20028;-76
2022/05/18 13:34:07;;;;;;;6.40;3.95;;;;;;;26.24;47.90;101885.03;5263838;28;20033;-78
2022/05/18 13:36:45;;;;;;;7.05;3.58;;;;;;;26.20;47.93;101889.84;5264397;28;20029;-78
2022/05/18 13:39:29;;;;;;;5.05;4.22;;;;;;;25.91;48.02;101881.84;5263632;28;20125;-77
2022/05/18 13:42:06;;;;;;;6.93;4.05;;;;;;;26.08;48.29;101889.13;5263954;28;20032;-78
2022/05/18 13:44:38;;;;;;;5.10;3.08;;;;;;;26.19;48.06;101873.13;5264391;28;20021;-77
2022/05/18 13:47:21;;;;;;;8.15;4.60;;;;;;;26.09;47.91;101885.09;5263691;28;20507;-78
2022/05/18 13:49:53;;;;;;;5.88;3.50;;;;;;;26.22;47.48;101876.06;5270887;28;20056;-78
2022/05/18 13:52:29;;;;;;;7.28;3.03;;;;;;;26.51;47.13;101876.69;5264143;28;20025;-78
2022/05/18 13:55:04;;;;;;;5.75;3.38;;;;;;;26.54;47.11;101863.78;5262973;28;20031;-77
2022/05/18 13:57:45;;;;;;;7.35;3.30;;;;;;;26.60;46.57;101871.59;5263528;28;20044;-77
2022/05/18 14:00:26;;;;;;;7.28;4.03;;;;;;;26.81;46.61;101870.38;5263400;28;20061;-79
2022/05/18 14:03:00;;;;;;;7.75;3.50;;;;;;;27.00;46.06;101878.09;5264603;28;20024;-79
2022/05/18 14:05:34;;;;;;;7.38;2.97;;;;;;;27.13;45.34;101871.00;5263780;28;20067;-75
2022/05/18 14:08:25;;;;;;;6.57;3.47;;;;;;;27.30;45.22;101862.00;5262115;28;20118;-73
2022/05/18 14:10:58;;;;;;;5.82;3.40;;;;;;;27.49;44.56;101866.78;5263464;28;20108;-75
2022/05/18 14:13:33;;;;;;;11.27;3.92;;;;;;;27.53;44.28;101866.81;5263539;28;20017;-74
2022/05/18 14:16:06;;;;;;;6.82;3.30;;;;;;;27.59;44.94;101864.50;5259183;28;20025;-77
2022/05/18 14:18:42;;;;;;;4.63;3.35;;;;;;;27.27;44.90;101862.72;5263489;28;20372;-76
2022/05/18 14:21:14;;;;;;;3.85;2.88;;;;;;;27.45;44.92;101859.38;5262452;28;20040;-75
2022/05/18 14:24:03;;;;;;;5.93;3.13;;;;;;;27.28;44.54;101861.53;5256926;28;20033;-84
2022/05/18 14:27:08;;;;;;;6.30;3.55;;;;;;;27.40;45.16;101854.81;5264987;28;20044;-79
2022/05/18 14:29:48;;;;;;;4.57;3.20;;;;;;;27.36;45.24;101862.47;5250883;28;20111;-79
2022/05/18 14:32:24;;;;;;;6.15;4.75;;;;;;;27.06;45.26;101859.47;5263050;28;20425;-79
2022/05/18 14:35:06;;;;;;;27.83;25.13;;;;;;;27.43;44.68;101856.91;5262468;28;20033;-80
2022/05/18 14:37:52;;;;;;;4.78;3.42;;;;;;;27.52;45.39;101853.78;5262656;28;20081;-79
2022/05/18 14:47:07;;;;;;;3.72;3.40;;;;;;;27.54;44.71;101851.38;5213364;28;20389;-77
2022/05/18 14:49:55;;;;;;;3.40;3.10;;;;;;;27.48;44.39;101847.19;5226310;28;20218;-77
2022/05/18 14:52:35;;;;;;;8.32;3.75;;;;;;;27.31;44.31;101848.56;5189307;28;20053;-75
2022/05/18 14:55:20;;;;;;;7.05;3.55;;;;;;;27.17;44.52;101843.41;5200871;28;20363;-75
2022/05/18 14:57:51;;;;;;;8.83;3.50;;;;;;;27.24;44.78;101837.03;5216254;28;20026;-77
2022/05/18 15:00:34;;;;;;;17.10;15.45;;;;;;;27.18;44.85;101835.72;5220719;28;20354;-79
2022/05/18 15:03:12;;;;;;;7.80;4.38;;;;;;;27.25;45.03;101838.69;5220946;28;20021;-78
2022/05/18 15:05:45;;;;;;;6.43;3.40;;;;;;;27.23;45.23;101841.94;5221060;28;20032;-78
2022/05/18 15:08:38;;;;;;;6.40;3.13;;;;;;;27.15;44.44;101834.44;5219864;28;20026;-79
2022/05/18 15:11:15;;;;;;;5.57;2.83;;;;;;;27.19;44.66;101835.34;5220185;28;20076;-78
2022/05/18 15:14:01;;;;;;;6.13;2.95;;;;;;;27.18;44.78;101836.53;5221530;28;20476;-78
2022/05/18 15:16:43;;;;;;;5.13;2.63;;;;;;;27.13;44.89;101830.31;5220607;28;20037;-78
2022/05/18 15:19:24;;;;;;;6.13;2.97;;;;;;;27.18;45.25;101822.31;5219668;28;20026;-78
2022/05/18 15:22:31;;;;;;;3.20;2.63;;;;;;;27.09;44.95;101828.22;5221136;28;20025;-77
2022/05/18 15:25:37;;;;;;;5.45;2.65;;;;;;;27.14;44.71;101821.38;5213937;28;20060;-78
2022/05/18 15:28:17;;;;;;;5.80;3.45;;;;;;;27.14;44.74;101823.41;5210678;28;20034;-77
2022/05/18 15:30:56;;;;;;;6.03;2.72;;;;;;;27.14;44.66;101821.38;5220878;28;20049;-77
2022/05/18 15:33:34;;;;;;;7.80;3.35;;;;;;;26.93;44.71;101821.03;5220113;28;20106;-77
2022/05/18 15:36:08;;;;;;;5.25;2.75;;;;;;;26.91;45.50;101824.22;5221553;28;20117;-76
2022/05/18 15:38:41;;;;;;;5.50;2.45;;;;;;;26.91;45.21;101812.84;5220238;28;20113;-75
2022/05/18 15:41:14;;;;;;;12.35;8.10;;;;;;;26.98;44.86;101812.16;5220126;28;20069;-77
2022/05/18 15:43:48;;;;;;;9.98;7.25;;;;;;;27.06;44.56;101819.63;5220667;28;20036;-73
2022/05/18 15:46:31;;;;;;;5.73;2.87;;;;;;;26.82;44.66;101815.97;5220082;28;20026;-76
2022/05/18 15:49:06;;;;;;;6.47;3.28;;;;;;;26.94;44.96;101820.63;5227562;28;20292;-76
2022/05/18 15:51:38;;;;;;;;;;;;;;;27.05;45.01;101820.84;5221042;28;20033;-75
2022/05/18 15:54:11;;;;;;;5.90;2.63;;;;;;;26.95;45.13;101818.63;5219960;28;19913;-75
2022/05/18 15:56:42;;;;;;;6.85;2.65;;;;;;;26.90;45.29;101822.59;5220820;28;20280;-73
2022/05/18 15:59:14;;;;;;;4.45;3.00;;;;;;;26.80;45.12;101821.19;5220339;28;20018;-83
2022/05/18 16:01:45;;;;;;;5.97;2.90;;;;;;;26.85;44.84;101820.06;5221692;28;20048;-81
2022/05/18 16:04:17;;;;;;;5.60;2.67;;;;;;;26.96;44.11;101820.25;5222548;28;20022;-82
2022/05/18 16:06:48;;;;;;;6.13;2.85;;;;;;;26.90;44.28;101816.91;5220721;28;20288;-79
2022/05/18 16:09:22;;;;;;;4.00;2.38;;;;;;;26.97;44.46;101817.03;5220920;28;20022;-78
2022/05/18 16:11:53;;;;;;;5.78;2.88;;;;;;;27.00;45.25;101821.16;5226911;28;20093;-86
2022/05/18 16:17:05;;;;;;;4.97;2.80;;;;;;;26.87;44.57;101824.19;5387507;22;20084;-86
2022/05/18 16:19:43;;;;;;;24.90;22.50;;;;;;;27.00;43.72;101816.28;5205744;28;20023;-85
2022/05/18 16:22:15;;;;;;;5.93;5.25;;;;;;;26.94;44.08;101822.66;5205110;28;20184;-83
2022/05/18 16:24:47;;;;;;;4.68;3.70;;;;;;;27.01;43.99;101819.94;5203540;28;20401;-82
2022/05/18 16:27:19;;;;;;;7.18;6.47;;;;;;;27.00;43.50;101824.81;5203891;28;20034;-79
2022/05/18 16:29:54;;;;;;;3.72;2.70;;;;;;;27.00;43.12;101824.00;5203572;28;20470;-78
2022/05/18 16:32:28;;;;;;;2.77;2.37;;;;;;;27.06;43.11;101826.13;5204312;28;20030;-80
2022/05/18 16:34:59;;;;;;;5.33;2.30;;;;;;;27.07;43.20;101824.09;5202758;28;20038;-78
2022/05/18 16:37:30;;;;;;;2.78;2.10;;;;;;;27.14;43.22;101815.69;5203762;28;20352;-79
2022/05/18 16:40:03;;;;;;;8.35;3.35;;;;;;;27.22;43.45;101819.50;5203900;28;20496;-80
2022/05/18 16:42:35;;;;;;;4.13;2.30;;;;;;;27.16;43.40;101824.69;5202954;28;20432;-77
2022/05/18 16:45:09;;;;;;;3.15;2.30;;;;;;;27.23;43.55;101810.59;5203652;28;20026;-76
2022/05/18 16:47:43;;;;;;;6.30;2.53;;;;;;;27.23;43.33;101819.16;5203095;28;20486;-80
2022/05/18 16:50:15;;;;;;;4.40;2.83;;;;;;;27.28;43.34;101809.47;5200955;28;20358;-77
2022/05/18 16:52:49;;;;;;;4.63;2.90;;;;;;;27.34;43.18;101815.66;5203503;28;20033;-77
2022/05/18 16:55:20;;;;;;;4.30;2.60;;;;;;;27.21;43.45;101810.16;5203327;28;20486;-76
2022/05/18 16:57:53;;;;;;;4.13;2.50;;;;;;;27.25;43.42;101807.34;5201367;28;20046;-76
2022/05/18 17:00:25;;;;;;;4.95;2.90;;;;;;;27.06;43.45;101809.06;5203456;28;20110;-76
2022/05/18 17:02:56;;;;;;;4.80;2.92;;;;;;;26.96;43.58;101806.03;5202321;28;20097;-80
2022/05/18 17:09:00;;;;;;;6.78;3.88;;;;;;;26.82;45.55;101809.44;5201324;28;20038;-77
2022/05/18 17:11:18;;;;;;;9.43;4.82;;;;;;;26.64;45.93;101806.25;5194631;28;20046;-79
2022/05/18 17:13:56;;;;;;;7.75;4.80;;;;;;;26.61;46.31;101798.47;5203619;28;20110;-80
2022/05/18 17:16:27;;;;;;;8.30;4.65;;;;;;;26.64;46.25;101792.03;5203216;28;20034;-81
2022/05/18 17:18:59;;;;;;;6.72;3.83;;;;;;;26.59;45.99;101787.47;5201610;28;20049;-80
2022/05/18 17:21:30;;;;;;;7.45;4.57;;;;;;;26.56;46.18;101790.25;5203840;28;20053;-76
2022/05/18 17:24:02;;;;;;;7.28;5.03;;;;;;;26.74;46.05;101797.13;5201962;28;20109;-78
2022/05/18 17:26:36;;;;;;;7.38;3.88;;;;;;;26.65;46.11;101788.81;5202493;28;20077;-75
2022/05/18 17:29:29;;;;;;;6.57;5.30;;;;;;;26.50;46.76;101791.72;5202354;28;20065;-75
